Time;durP1;ratioP1;P1;durP2;ratioP2;P2;SDS_P1;SDS_P2;PMS_P1;PMS_P2;Temp;Humidity;BMP_temperature;BMP_pressure;BME280_temperature;BME280_humidity;BME280_pressure;Samples;Min_cycle;Max_cycle;Signal;HPM_P1;HPM_P2
2024/03/20 00:02:24;;;;;;;19.92;10.98;;;10.70;90.30;;;;;;4981593;28;20336;-72
2024/03/20 00:04:51;;;;;;;21.20;11.63;;;10.70;90.40;;;;;;4981342;28;20041;-74
2024/03/20 00:07:17;;;;;;;20.88;12.18;;;10.70;90.50;;;;;;4982677;28;20476;-69
2024/03/20 00:09:43;;;;;;;19.20;11.48;;;10.60;90.50;;;;;;4980856;28;20073;-73
2024/03/20 00:12:09;;;;;;;20.85;12.38;;;10.60;90.50;;;;;;4980182;28;20045;-69
2024/03/20 00:14:34;;;;;;;23.13;12.38;;;10.60;90.50;;;;;;4973951;28;20026;-70
2024/03/20 00:17:03;;;;;;;20.52;12.23;;;10.60;90.50;;;;;;4975956;28;21653;-72
2024/03/20 00:19:29;;;;;;;20.00;12.32;;;10.60;90.60;;;;;;4974627;28;20395;-73
2024/03/20 00:21:54;;;;;;;20.85;13.18;;;10.60;90.60;;;;;;4978780;28;20047;-69
2024/03/20 00:24:20;;;;;;;21.23;12.40;;;10.50;90.60;;;;;;4980768;28;20026;-70
2024/03/20 00:26:47;;;;;;;21.77;13.00;;;10.50;90.70;;;;;;4973556;28;20053;-70
2024/03/20 00:29:13;;;;;;;20.63;13.02;;;10.50;90.90;;;;;;4974346;28;20141;-71
2024/03/20 00:31:38;;;;;;;20.50;13.95;;;10.40;91.00;;;;;;4978020;28;20089;-71
2024/03/20 00:34:04;;;;;;;22.17;13.55;;;10.40;91.20;;;;;;4974558;28;20287;-75
2024/03/20 00:36:31;;;;;;;20.13;12.88;;;10.40;91.20;;;;;;4974596;28;20066;-72
2024/03/20 00:38:56;;;;;;;19.73;13.77;;;10.40;91.10;;;;;;4979032;28;20217;-69
2024/03/20 00:41:22;;;;;;;19.60;13.68;;;10.40;91.00;;;;;;4976305;28;20042;-71
2024/03/20 00:43:48;;;;;;;18.75;14.82;;;10.30;91.00;;;;;;4983002;28;20054;-71
2024/03/20 00:46:13;;;;;;;22.58;14.05;;;10.20;91.00;;;;;;4976368;28;20030;-70
2024/03/20 00:48:39;;;;;;;20.00;13.57;;;10.20;91.10;;;;;;4977509;28;20104;-72
2024/03/20 00:51:05;;;;;;;20.48;14.13;;;10.20;91.20;;;;;;4974114;28;20102;-70
2024/03/20 00:53:30;;;;;;;21.52;13.82;;;10.20;91.10;;;;;;4976425;28;20034;-70
2024/03/20 00:55:56;;;;;;;25.23;15.55;;;10.10;91.10;;;;;;4971593;28;20046;-72
2024/03/20 00:58:21;;;;;;;23.52;13.77;;;10.10;91.10;;;;;;4976641;28;20522;-73
2024/03/20 01:00:47;;;;;;;27.38;16.80;;;10.10;91.20;;;;;;4972603;28;20454;-69
2024/03/20 01:03:13;;;;;;;28.55;16.25;;;10.10;91.40;;;;;;4975275;28;20030;-74
2024/03/20 01:05:39;;;;;;;24.95;15.43;;;10.10;91.60;;;;;;4982099;28;20034;-71
2024/03/20 01:08:05;;;;;;;26.85;16.58;;;10.10;91.70;;;;;;4975518;28;20365;-74
2024/03/20 01:10:31;;;;;;;25.88;15.93;;;10.10;91.60;;;;;;4984078;28;20274;-69
2024/03/20 01:12:56;;;;;;;27.52;16.45;;;10.10;91.60;;;;;;4981278;28;20459;-70
2024/03/20 01:15:22;;;;;;;28.08;16.55;;;10.10;91.40;;;;;;4978497;28;20069;-74
2024/03/20 01:17:48;;;;;;;29.33;16.92;;;10.10;91.30;;;;;;4975914;28;20471;-70
2024/03/20 01:20:13;;;;;;;27.20;17.83;;;10.10;91.20;;;;;;4970182;28;20076;-70
2024/03/20 01:22:39;;;;;;;24.55;16.63;;;10.10;91.20;;;;;;4976349;28;20041;-71
2024/03/20 01:25:06;;;;;;;24.67;15.82;;;10.00;91.40;;;;;;4978902;28;20038;-70
2024/03/20 01:27:32;;;;;;;26.65;17.52;;;10.00;91.50;;;;;;4975171;28;20042;-72
2024/03/20 01:29:58;;;;;;;30.08;17.73;;;10.00;91.60;;;;;;4972647;28;20038;-70
2024/03/20 01:32:24;;;;;;;25.67;17.50;;;10.00;91.50;;;;;;4977184;28;20259;-70
2024/03/20 01:34:50;;;;;;;31.60;18.25;;;10.00;91.50;;;;;;4980289;28;20030;-74
2024/03/20 01:37:15;;;;;;;30.35;17.85;;;9.90;91.60;;;;;;4984321;28;20050;-72
2024/03/20 01:39:42;;;;;;;30.00;17.92;;;9.90;91.60;;;;;;4981101;28;20041;-75
2024/03/20 01:42:07;;;;;;;29.92;19.08;;;9.80;91.70;;;;;;4972777;28;20871;-72
2024/03/20 01:44:33;;;;;;;32.65;19.27;;;9.90;91.90;;;;;;4982002;28;20058;-73
2024/03/20 01:46:59;;;;;;;29.70;18.20;;;9.90;92.00;;;;;;4979638;28;20053;-72
2024/03/20 01:49:25;;;;;;;32.20;19.80;;;9.90;92.00;;;;;;4981517;28;20027;-71
2024/03/20 01:51:51;;;;;;;30.73;18.55;;;9.90;92.00;;;;;;4980601;28;20047;-70
2024/03/20 01:54:18;;;;;;;25.58;17.80;;;9.90;92.10;;;;;;4983174;28;21220;-75
2024/03/20 01:56:44;;;;;;;29.98;19.63;;;9.80;91.90;;;;;;4979203;28;20121;-71
2024/03/20 01:59:10;;;;;;;29.55;18.63;;;9.80;91.80;;;;;;4991456;28;20109;-72
2024/03/20 02:01:36;;;;;;;29.73;18.42;;;9.80;91.80;;;;;;4979646;28;20038;-69
2024/03/20 02:04:05;;;;;;;28.08;18.00;;;9.70;91.90;;;;;;4992902;28;20038;-70
2024/03/20 02:06:32;;;;;;;29.15;18.95;;;9.70;92.00;;;;;;4981379;28;20035;-71
2024/03/20 02:08:58;;;;;;;26.95;18.73;;;9.70;92.10;;;;;;4992342;28;20487;-75
2024/03/20 02:11:26;;;;;;;34.00;20.15;;;9.70;92.20;;;;;;4976340;28;20045;-71
2024/03/20 02:13:54;;;;;;;28.70;19.05;;;9.70;92.30;;;;;;4982244;28;20383;-72
2024/03/20 02:16:21;;;;;;;28.02;18.55;;;9.70;92.30;;;;;;4978556;28;20061;-73
2024/03/20 02:18:48;;;;;;;28.45;18.35;;;9.60;92.10;;;;;;4980702;28;20778;-70
2024/03/20 02:21:16;;;;;;;28.10;19.00;;;9.60;92.20;;;;;;4976905;28;20124;-72
2024/03/20 02:23:42;;;;;;;32.75;20.73;;;9.60;92.30;;;;;;4979450;28;20057;-74
2024/03/20 02:26:08;;;;;;;31.65;20.42;;;9.60;92.30;;;;;;4975852;28;20443;-71
2024/03/20 02:28:38;;;;;;;28.02;19.42;;;9.60;92.20;;;;;;4977478;28;20033;-72
2024/03/20 02:31:05;;;;;;;27.65;18.30;;;9.60;92.20;;;;;;4978584;28;20034;-74
2024/03/20 02:33:31;;;;;;;26.65;19.58;;;9.60;92.10;;;;;;4979164;28;20916;-76
2024/03/20 02:35:56;;;;;;;31.55;21.42;;;9.50;92.10;;;;;;4975427;28;20050;-71
2024/03/20 02:38:25;;;;;;;31.00;20.02;;;9.50;92.00;;;;;;4993118;28;20035;-74
2024/03/20 02:40:52;;;;;;;30.20;18.83;;;9.50;92.00;;;;;;4980015;28;20042;-70
2024/03/20 02:43:19;;;;;;;30.63;18.95;;;9.40;92.10;;;;;;4976813;28;20041;-69
2024/03/20 02:45:45;;;;;;;29.42;19.88;;;9.40;92.30;;;;;;4981111;28;20473;-74
2024/03/20 02:48:12;;;;;;;30.42;18.63;;;9.40;92.30;;;;;;4978532;28;20117;-72
2024/03/20 02:50:41;;;;;;;28.45;18.88;;;9.30;92.30;;;;;;4978625;28;20467;-72
2024/03/20 02:53:06;;;;;;;26.70;17.60;;;9.30;92.40;;;;;;4978699;28;20093;-71
2024/03/20 02:55:33;;;;;;;28.65;18.23;;;9.30;92.40;;;;;;4980127;28;20370;-71
2024/03/20 02:58:00;;;;;;;28.60;19.83;;;9.30;92.40;;;;;;4979038;28;20045;-72
2024/03/20 03:00:27;;;;;;;27.02;18.23;;;9.20;92.30;;;;;;4977027;28;20474;-72
2024/03/20 03:02:56;;;;;;;29.65;20.77;;;9.20;92.40;;;;;;4978571;28;20133;-73
2024/03/20 03:05:23;;;;;;;34.25;21.23;;;9.10;92.40;;;;;;4976303;28;20446;-70
2024/03/20 03:07:48;;;;;;;29.98;19.77;;;9.10;92.40;;;;;;4978887;28;20031;-71
2024/03/20 03:10:15;;;;;;;28.67;19.20;;;9.10;92.40;;;;;;4981301;28;20038;-71
2024/03/20 03:12:45;;;;;;;29.13;19.83;;;9.10;92.40;;;;;;4978199;28;20031;-74
2024/03/20 03:15:11;;;;;;;31.08;20.52;;;9.10;92.50;;;;;;4977984;28;20029;-72
2024/03/20 03:17:37;;;;;;;30.20;20.05;;;9.10;92.50;;;;;;4994429;28;20376;-70
2024/03/20 03:20:13;;;;;;;30.48;19.27;;;9.10;92.40;;;;;;4981992;28;20155;-74
2024/03/20 03:22:39;;;;;;;32.80;20.90;;;9.10;92.30;;;;;;4972828;28;20043;-75
2024/03/20 03:25:05;;;;;;;31.35;20.27;;;9.10;92.30;;;;;;4980297;28;20022;-71
2024/03/20 03:27:31;;;;;;;29.80;20.27;;;9.10;92.30;;;;;;4978712;28;20088;-69
2024/03/20 03:29:57;;;;;;;32.17;21.25;;;9.00;92.30;;;;;;4976212;28;20024;-72
2024/03/20 03:32:22;;;;;;;35.97;21.42;;;9.00;92.30;;;;;;4974649;28;20248;-72
2024/03/20 03:34:48;;;;;;;32.72;21.55;;;9.00;92.40;;;;;;4982556;28;20030;-70
2024/03/20 03:37:14;;;;;;;32.72;20.60;;;9.00;92.40;;;;;;4979273;28;20050;-70
2024/03/20 03:39:39;;;;;;;34.17;21.83;;;8.90;92.40;;;;;;4980210;28;20033;-71
2024/03/20 03:42:05;;;;;;;36.88;23.75;;;9.00;92.50;;;;;;4979837;28;20034;-73
2024/03/20 03:44:31;;;;;;;36.60;23.92;;;9.00;92.50;;;;;;4977963;28;20046;-69
2024/03/20 03:46:57;;;;;;;34.83;22.45;;;9.00;92.50;;;;;;4976078;28;20117;-69
2024/03/20 03:49:22;;;;;;;36.97;24.00;;;9.00;92.60;;;;;;4971794;28;20338;-74
2024/03/20 03:51:48;;;;;;;38.45;24.33;;;9.00;92.60;;;;;;4982108;28;20042;-70
2024/03/20 03:54:14;;;;;;;38.85;24.83;;;8.90;92.70;;;;;;4984143;28;20525;-74
2024/03/20 03:56:39;;;;;;;37.38;24.25;;;8.90;92.80;;;;;;4985403;28;20061;-73
2024/03/20 03:59:05;;;;;;;40.60;24.30;;;8.90;92.90;;;;;;4982738;28;20022;-70
2024/03/20 04:01:30;;;;;;;38.00;23.63;;;8.90;92.90;;;;;;4982550;28;20034;-71
2024/03/20 04:03:56;;;;;;;36.83;22.27;;;8.80;92.90;;;;;;4975217;28;20027;-70
2024/03/20 04:06:22;;;;;;;40.20;25.08;;;8.80;93.00;;;;;;4973718;28;20089;-72
2024/03/20 04:08:47;;;;;;;40.38;24.73;;;8.80;93.00;;;;;;4971749;28;20108;-70
2024/03/20 04:11:13;;;;;;;44.13;27.35;;;8.80;93.10;;;;;;4976442;28;20046;-74
2024/03/20 04:13:38;;;;;;;40.20;24.17;;;8.80;93.20;;;;;;4980826;28;20045;-74
2024/03/20 04:16:04;;;;;;;40.25;24.35;;;8.70;93.20;;;;;;4975594;28;20053;-70
2024/03/20 04:18:30;;;;;;;33.70;23.20;;;8.70;93.30;;;;;;4969023;28;20384;-70
2024/03/20 04:20:55;;;;;;;37.55;25.45;;;8.70;93.40;;;;;;4980630;28;20050;-71
2024/03/20 04:23:21;;;;;;;35.83;24.70;;;8.70;93.30;;;;;;4973459;28;20118;-71
2024/03/20 04:25:47;;;;;;;36.28;24.38;;;8.60;93.40;;;;;;4977262;28;20038;-71
2024/03/20 04:28:13;;;;;;;38.53;25.48;;;8.60;93.40;;;;;;4976390;28;20027;-72
2024/03/20 04:30:38;;;;;;;32.63;23.45;;;8.60;93.40;;;;;;4975597;28;20574;-73
2024/03/20 04:33:05;;;;;;;42.78;25.42;;;8.60;93.40;;;;;;4974089;28;20608;-71
2024/03/20 04:35:31;;;;;;;37.83;24.15;;;8.60;93.50;;;;;;4978797;28;20034;-71
2024/03/20 04:37:57;;;;;;;43.90;26.35;;;8.60;93.50;;;;;;4975039;28;20062;-71
2024/03/20 04:40:22;;;;;;;38.55;24.88;;;8.60;93.60;;;;;;4976705;28;20114;-73
2024/03/20 04:42:48;;;;;;;37.22;26.48;;;8.60;93.60;;;;;;4973149;28;20093;-70
2024/03/20 04:45:14;;;;;;;37.80;26.10;;;8.60;93.70;;;;;;4979207;28;20372;-75
2024/03/20 04:47:40;;;;;;;40.17;25.90;;;8.60;93.70;;;;;;4983697;28;20034;-74
2024/03/20 04:50:10;;;;;;;35.05;24.70;;;8.50;93.70;;;;;;4963259;28;20026;-70
2024/03/20 04:52:37;;;;;;;38.38;24.80;;;8.60;93.80;;;;;;4978165;28;20045;-72
2024/03/20 04:55:04;;;;;;;37.40;24.45;;;8.60;93.80;;;;;;4977104;28;20853;-73
2024/03/20 04:57:30;;;;;;;41.22;23.95;;;8.50;93.80;;;;;;4974622;28;20042;-72
2024/03/20 04:59:55;;;;;;;38.20;25.30;;;8.50;93.80;;;;;;4978504;28;20034;-74
2024/03/20 05:02:21;;;;;;;39.60;26.27;;;8.50;93.80;;;;;;4976462;28;20039;-71
2024/03/20 05:04:47;;;;;;;39.17;24.30;;;8.50;93.80;;;;;;4984117;28;20032;-71
2024/03/20 05:07:13;;;;;;;33.78;23.20;;;8.50;93.80;;;;;;4977545;28;20093;-76
2024/03/20 05:09:39;;;;;;;37.83;23.58;;;8.50;93.70;;;;;;4976491;28;20085;-70
2024/03/20 05:12:05;;;;;;;37.17;23.58;;;8.40;93.60;;;;;;4976352;28;20077;-71
2024/03/20 05:14:31;;;;;;;32.97;23.02;;;8.40;93.50;;;;;;4981387;28;20034;-70
2024/03/20 05:16:59;;;;;;;38.83;23.85;;;8.40;93.60;;;;;;4979956;28;20513;-70
2024/03/20 05:19:26;;;;;;;34.40;23.40;;;8.40;93.50;;;;;;4983560;28;20084;-73
2024/03/20 05:21:52;;;;;;;38.72;24.52;;;8.40;93.30;;;;;;4981073;28;20038;-74
2024/03/20 05:24:18;;;;;;;34.17;22.67;;;8.40;93.10;;;;;;4976601;28;20031;-71
2024/03/20 05:26:44;;;;;;;36.50;23.98;;;8.40;93.10;;;;;;4980043;28;20042;-74
2024/03/20 05:29:09;;;;;;;37.67;24.33;;;8.30;93.20;;;;;;5003031;28;20145;-71
2024/03/20 05:31:35;;;;;;;39.67;24.65;;;8.40;93.30;;;;;;4979618;28;20157;-70
2024/03/20 05:34:01;;;;;;;38.40;24.63;;;8.40;93.30;;;;;;4973508;28;20064;-76
2024/03/20 05:36:30;;;;;;;37.00;23.73;;;8.30;93.30;;;;;;4975076;28;20200;-71
2024/03/20 05:38:55;;;;;;;39.72;24.52;;;8.30;93.30;;;;;;4978940;28;20031;-70
2024/03/20 05:41:24;;;;;;;38.08;25.17;;;8.30;93.30;;;;;;4972627;28;20054;-75
2024/03/20 05:43:51;;;;;;;35.38;24.90;;;8.30;93.30;;;;;;4974702;28;20065;-72
2024/03/20 05:46:16;;;;;;;35.95;23.90;;;8.30;93.40;;;;;;4991813;28;20686;-74
2024/03/20 05:48:43;;;;;;;37.38;25.08;;;8.30;93.40;;;;;;4990922;28;20030;-70
2024/03/20 05:51:12;;;;;;;42.38;25.70;;;8.30;93.40;;;;;;4980089;28;20701;-73
2024/03/20 05:53:37;;;;;;;36.70;24.73;;;8.30;93.40;;;;;;4979458;28;20027;-73
2024/03/20 05:56:09;;;;;;;38.25;25.05;;;8.30;93.40;;;;;;4973723;28;20038;-73
2024/03/20 05:58:39;;;;;;;40.55;26.77;;;8.30;93.30;;;;;;4981132;28;20058;-70
2024/03/20 06:01:11;;;;;;;38.78;26.48;;;8.30;93.30;;;;;;4979622;28;20046;-70
2024/03/20 06:03:40;;;;;;;44.17;28.10;;;8.30;93.30;;;;;;4973726;28;20026;-71
2024/03/20 06:06:06;;;;;;;40.13;27.75;;;8.30;93.30;;;;;;4971219;28;20511;-74
2024/03/20 06:08:32;;;;;;;41.90;27.15;;;8.30;93.30;;;;;;4979607;28;20084;-70
2024/03/20 06:10:58;;;;;;;40.88;29.42;;;8.40;93.30;;;;;;4981468;28;20046;-70
2024/03/20 06:13:24;;;;;;;39.55;27.05;;;8.40;93.40;;;;;;4979751;28;20031;-72
2024/03/20 06:15:50;;;;;;;38.58;28.85;;;8.50;93.40;;;;;;4979502;28;20046;-71
2024/03/20 06:18:16;;;;;;;39.53;27.55;;;8.50;93.40;;;;;;4979438;28;20379;-72
2024/03/20 06:20:41;;;;;;;39.25;27.83;;;8.60;93.20;;;;;;4977964;28;20096;-74
2024/03/20 06:23:10;;;;;;;42.70;28.08;;;8.60;93.20;;;;;;4975689;28;20026;-70
2024/03/20 06:25:36;;;;;;;43.92;27.55;;;8.60;93.10;;;;;;4972773;28;20038;-75
2024/03/20 06:28:02;;;;;;;38.33;25.73;;;8.60;92.90;;;;;;4976556;28;20042;-72
2024/03/20 06:30:28;;;;;;;37.95;25.17;;;8.60;92.80;;;;;;4976947;28;20034;-70
2024/03/20 06:32:54;;;;;;;38.88;25.15;;;8.60;92.70;;;;;;4998658;28;20054;-72
2024/03/20 06:35:32;;;;;;;37.47;24.35;;;8.70;92.70;;;;;;4989087;28;20037;-71
2024/03/20 06:38:00;;;;;;;37.00;24.40;;;8.70;92.60;;;;;;4971311;28;20057;-71
2024/03/20 06:40:32;;;;;;;45.58;28.05;;;8.80;92.70;;;;;;4978430;28;20040;-74
2024/03/20 06:42:59;;;;;;;40.05;24.48;;;8.80;92.80;;;;;;4979744;28;20145;-72
2024/03/20 06:45:31;;;;;;;49.90;31.65;;;8.90;92.80;;;;;;4982231;28;20022;-72
2024/03/20 06:48:01;;;;;;;46.67;28.85;;;9.10;92.90;;;;;;4977519;28;20048;-69
2024/03/20 06:50:28;;;;;;;45.95;28.52;;;9.10;92.80;;;;;;4996779;28;20040;-71
2024/03/20 06:53:00;;;;;;;39.28;25.63;;;9.20;92.60;;;;;;4981699;28;20042;-75
2024/03/20 06:55:26;;;;;;;46.22;27.05;;;9.40;92.40;;;;;;4980578;28;20395;-72
2024/03/20 06:57:55;;;;;;;42.10;27.30;;;9.50;92.20;;;;;;4983447;28;20038;-71
2024/03/20 07:00:22;;;;;;;39.65;26.63;;;9.60;92.50;;;;;;4980418;28;20033;-71
2024/03/20 07:02:48;;;;;;;44.30;27.02;;;9.60;92.50;;;;;;4997688;28;20045;-71
2024/03/20 07:05:15;;;;;;;47.10;26.98;;;9.70;92.30;;;;;;4980949;28;20605;-71
2024/03/20 07:07:43;;;;;;;38.97;27.30;;;9.70;92.00;;;;;;4979619;28;20046;-72
2024/03/20 07:10:09;;;;;;;40.28;25.60;;;9.70;92.00;;;;;;4980854;28;20030;-69
2024/03/20 07:12:38;;;;;;;41.10;27.20;;;9.70;92.10;;;;;;4984847;28;20034;-69
2024/03/20 07:15:08;;;;;;;45.53;26.80;;;9.70;91.90;;;;;;4977173;28;20018;-69
2024/03/20 07:17:38;;;;;;;36.20;26.65;;;9.80;91.90;;;;;;4980102;28;20040;-75
2024/03/20 07:20:09;;;;;;;38.45;26.63;;;9.80;92.20;;;;;;4977256;28;20446;-71
2024/03/20 07:22:38;;;;;;;40.90;28.48;;;10.00;92.30;;;;;;4979570;28;20070;-73
2024/03/20 07:25:07;;;;;;;44.28;29.60;;;10.10;92.10;;;;;;4979981;28;20033;-74
2024/03/20 07:27:34;;;;;;;38.60;27.48;;;10.20;91.90;;;;;;4979002;28;20038;-72
2024/03/20 07:30:00;;;;;;;36.10;26.83;;;10.40;91.80;;;;;;4984497;28;20077;-71
2024/03/20 07:32:27;;;;;;;38.75;25.38;;;10.50;91.60;;;;;;4976820;28;20042;-73
2024/03/20 07:34:53;;;;;;;34.40;23.55;;;10.50;91.10;;;;;;4982810;28;20022;-73
2024/03/20 07:37:18;;;;;;;38.17;25.30;;;10.40;90.70;;;;;;4981136;28;20042;-73
2024/03/20 07:39:44;;;;;;;38.90;26.52;;;10.50;91.00;;;;;;4983537;28;20045;-74
2024/03/20 07:42:10;;;;;;;32.60;24.52;;;10.60;90.70;;;;;;4983810;28;20034;-73
2024/03/20 07:44:36;;;;;;;36.13;23.92;;;10.70;91.20;;;;;;4985410;28;20031;-75
2024/03/20 07:47:03;;;;;;;36.92;23.83;;;10.80;91.00;;;;;;4978380;28;20048;-76
2024/03/20 07:49:29;;;;;;;32.00;23.33;;;11.00;90.50;;;;;;4995404;28;20523;-74
2024/03/20 07:51:56;;;;;;;36.92;24.98;;;11.10;90.20;;;;;;4976760;28;20057;-73
2024/03/20 07:54:25;;;;;;;32.15;23.27;;;11.10;89.60;;;;;;4998246;28;20040;-77
2024/03/20 07:56:54;;;;;;;29.95;22.15;;;11.30;89.70;;;;;;4980447;28;20477;-75
2024/03/20 07:59:21;;;;;;;32.65;22.08;;;11.40;89.70;;;;;;4980755;28;20034;-72
2024/03/20 08:01:47;;;;;;;36.28;24.17;;;11.50;89.50;;;;;;4993560;28;20041;-75
2024/03/20 08:04:14;;;;;;;36.85;24.65;;;11.60;89.40;;;;;;4984025;28;20030;-73
2024/03/20 08:06:40;;;;;;;39.92;25.05;;;11.70;89.10;;;;;;4981401;28;20045;-72
2024/03/20 08:09:06;;;;;;;37.13;26.98;;;11.60;88.80;;;;;;4981065;28;20083;-74
2024/03/20 08:11:33;;;;;;;35.75;23.58;;;11.80;88.20;;;;;;4981108;28;20164;-72
2024/03/20 08:13:59;;;;;;;36.03;24.75;;;11.80;87.50;;;;;;4977643;28;20221;-73
2024/03/20 08:16:25;;;;;;;42.90;26.73;;;11.90;88.00;;;;;;4981420;28;20329;-75
2024/03/20 08:18:51;;;;;;;76.70;49.30;;;12.20;88.60;;;;;;4979458;28;20109;-74
2024/03/20 08:21:17;;;;;;;52.13;36.45;;;12.30;87.50;;;;;;4978585;28;20125;-73
2024/03/20 08:23:43;;;;;;;44.15;31.67;;;12.30;86.50;;;;;;4976607;28;20100;-73
2024/03/20 08:26:09;;;;;;;37.63;25.77;;;12.40;86.90;;;;;;4995215;28;20038;-73
2024/03/20 08:28:35;;;;;;;40.58;27.08;;;12.60;87.30;;;;;;4979258;28;20026;-73
2024/03/20 08:31:05;;;;;;;40.30;25.95;;;12.50;85.90;;;;;;4982200;28;20038;-73
2024/03/20 08:33:31;;;;;;;34.45;25.00;;;12.60;87.10;;;;;;4983013;28;20042;-73
2024/03/20 08:35:58;;;;;;;36.72;27.20;;;12.90;87.00;;;;;;4977048;28;20054;-73
2024/03/20 08:38:25;;;;;;;33.58;24.15;;;13.20;87.30;;;;;;4976905;28;20176;-74
2024/03/20 08:40:51;;;;;;;31.75;21.85;;;13.50;86.30;;;;;;4977332;28;20980;-73
2024/03/20 08:43:18;;;;;;;31.33;21.52;;;13.80;84.90;;;;;;4980116;28;20042;-75
2024/03/20 08:45:47;;;;;;;30.73;22.55;;;14.00;83.70;;;;;;4978823;28;20023;-73
2024/03/20 08:48:13;;;;;;;31.92;22.63;;;13.90;82.90;;;;;;4980369;28;20026;-75
2024/03/20 08:50:40;;;;;;;30.35;21.48;;;14.10;83.40;;;;;;4975563;28;20031;-71
2024/03/20 08:53:07;;;;;;;28.60;20.17;;;14.10;83.40;;;;;;4995204;28;20081;-73
2024/03/20 08:55:34;;;;;;;31.92;21.17;;;14.50;83.20;;;;;;4974441;28;20053;-74
2024/03/20 08:57:59;;;;;;;28.52;20.73;;;14.70;82.60;;;;;;4979334;28;20096;-75
2024/03/20 09:00:26;;;;;;;31.50;21.65;;;14.90;81.70;;;;;;4978602;28;20918;-74
2024/03/20 09:02:52;;;;;;;29.05;20.55;;;15.00;81.00;;;;;;4974803;28;20030;-76
2024/03/20 09:05:18;;;;;;;33.00;22.17;;;15.10;80.60;;;;;;4978764;28;20034;-74
2024/03/20 09:07:44;;;;;;;29.33;20.80;;;15.10;79.00;;;;;;4983258;28;20053;-75
2024/03/20 09:10:11;;;;;;;28.13;20.85;;;15.10;79.60;;;;;;4980445;28;20029;-75
2024/03/20 09:12:37;;;;;;;32.20;21.75;;;15.10;79.90;;;;;;4979410;28;20038;-71
2024/03/20 09:15:06;;;;;;;28.73;21.60;;;15.40;81.10;;;;;;4977771;28;20033;-72
2024/03/20 09:17:32;;;;;;;31.30;22.00;;;15.50;79.10;;;;;;4991056;28;20046;-74
2024/03/20 09:19:58;;;;;;;29.55;23.38;;;15.70;78.70;;;;;;4976477;28;20030;-74
2024/03/20 09:22:23;;;;;;;30.58;22.65;;;15.80;78.70;;;;;;4977047;28;20052;-74
2024/03/20 09:24:49;;;;;;;27.92;20.58;;;15.80;78.50;;;;;;4974963;28;20121;-75
2024/03/20 09:27:15;;;;;;;28.58;21.48;;;16.00;78.60;;;;;;4980865;28;20482;-79
2024/03/20 09:29:41;;;;;;;29.30;21.25;;;16.00;78.60;;;;;;4986843;28;20026;-79
2024/03/20 09:32:07;;;;;;;30.45;20.98;;;16.10;78.30;;;;;;4977375;28;20054;-79
2024/03/20 09:34:35;;;;;;;29.17;22.42;;;16.20;78.10;;;;;;4977244;28;20097;-77
2024/03/20 09:37:04;;;;;;;29.23;21.67;;;16.30;77.60;;;;;;4971667;28;20061;-75
2024/03/20 09:39:30;;;;;;;110.78;28.70;;;16.50;77.50;;;;;;4993686;28;20041;-80
2024/03/20 09:41:56;;;;;;;32.45;24.00;;;16.60;76.40;;;;;;4984100;28;20042;-77
2024/03/20 09:44:22;;;;;;;32.50;21.92;;;16.60;76.20;;;;;;4984735;28;20049;-75
2024/03/20 09:46:53;;;;;;;32.35;23.33;;;16.80;77.20;;;;;;4978982;28;20046;-75
2024/03/20 09:49:21;;;;;;;27.38;20.30;;;16.90;76.60;;;;;;4981992;28;20070;-75
2024/03/20 09:51:48;;;;;;;29.30;22.92;;;17.20;76.90;;;;;;4983964;28;20049;-75
2024/03/20 09:54:14;;;;;;;29.05;22.75;;;17.50;76.20;;;;;;4986060;28;20041;-76
2024/03/20 09:56:42;;;;;;;31.95;23.67;;;17.60;75.30;;;;;;4980697;28;20042;-76
2024/03/20 09:59:08;;;;;;;31.88;23.35;;;17.60;75.40;;;;;;4983349;28;20104;-76
2024/03/20 10:01:34;;;;;;;30.80;23.77;;;17.50;75.00;;;;;;4979273;28;20034;-77
2024/03/20 10:04:06;;;;;;;31.05;24.27;;;17.60;75.70;;;;;;4979787;28;20030;-78
2024/03/20 10:06:35;;;;;;;29.08;22.92;;;17.60;75.70;;;;;;4981113;28;20046;-77
2024/03/20 10:09:08;;;;;;;30.92;23.38;;;17.80;75.50;;;;;;4986489;28;20037;-76
2024/03/20 10:11:34;;;;;;;33.03;23.30;;;18.00;74.80;;;;;;4982759;28;20034;-76
2024/03/20 10:14:00;;;;;;;30.55;22.65;;;18.00;74.60;;;;;;5001668;28;20035;-75
2024/03/20 10:16:29;;;;;;;28.50;22.80;;;18.00;74.00;;;;;;4985935;28;20065;-76
2024/03/20 10:18:55;;;;;;;31.60;22.58;;;18.00;74.60;;;;;;4980899;28;20058;-75
2024/03/20 10:21:22;;;;;;;27.88;21.27;;;18.00;72.80;;;;;;4984631;28;21969;-73
2024/03/20 10:23:52;;;;;;;24.58;19.98;;;18.20;74.00;;;;;;4970486;28;20027;-73
2024/03/20 10:26:18;;;;;;;29.48;21.35;;;18.60;73.00;;;;;;4977146;28;20038;-74
2024/03/20 10:28:43;;;;;;;24.90;19.63;;;18.70;72.20;;;;;;4979161;28;20433;-73
2024/03/20 10:31:12;;;;;;;21.65;16.75;;;18.80;70.70;;;;;;4980437;28;20042;-75
2024/03/20 10:33:43;;;;;;;19.95;15.27;;;18.70;71.60;;;;;;4987270;28;20039;-78
2024/03/20 10:36:12;;;;;;;17.33;12.95;;;18.70;71.20;;;;;;4982187;28;20054;-79
2024/03/20 10:38:38;;;;;;;18.73;13.88;;;18.70;70.40;;;;;;4984213;28;20034;-77
2024/03/20 10:41:06;;;;;;;20.17;15.07;;;18.70;70.90;;;;;;4979438;28;20038;-80
2024/03/20 10:43:34;;;;;;;20.70;14.70;;;18.90;71.10;;;;;;4991347;28;20113;-80
2024/03/20 10:46:00;;;;;;;23.33;15.55;;;18.80;70.00;;;;;;4984380;28;20578;-78
2024/03/20 10:48:26;;;;;;;19.40;14.10;;;18.70;71.50;;;;;;4987065;28;20022;-78
2024/03/20 10:50:54;;;;;;;17.60;13.95;;;18.60;71.00;;;;;;4983124;28;20045;-81
2024/03/20 10:53:24;;;;;;;23.75;16.23;;;18.60;70.80;;;;;;5001413;28;20031;-81
2024/03/20 10:55:54;;;;;;;20.42;15.35;;;18.40;72.20;;;;;;4980741;28;20065;-82
2024/03/20 10:58:24;;;;;;;14.98;12.85;;;18.70;72.70;;;;;;4986317;28;20032;-74
2024/03/20 11:00:55;;;;;;;19.33;14.52;;;18.80;71.90;;;;;;4978814;28;20046;-77
2024/03/20 11:03:42;;;;;;;20.85;14.52;;;19.00;70.20;;;;;;4985791;28;20019;-77
2024/03/20 11:06:28;;;;;;;18.17;15.98;;;19.00;70.60;;;;;;4986377;28;20039;-77
2024/03/20 11:09:06;;;;;;;20.38;14.05;;;19.00;69.20;;;;;;4984244;28;20049;-76
2024/03/20 11:11:33;;;;;;;20.60;15.32;;;18.80;69.20;;;;;;4980833;28;20084;-75
2024/03/20 11:14:07;;;;;;;20.70;15.57;;;18.60;70.10;;;;;;4989332;28;20034;-76
2024/03/20 11:16:33;;;;;;;18.48;15.07;;;18.70;71.70;;;;;;4984013;28;20438;-75
2024/03/20 11:19:09;;;;;;;19.08;14.48;;;18.70;70.80;;;;;;4983122;28;20043;-74
2024/03/20 11:21:38;;;;;;;21.88;16.25;;;18.60;71.50;;;;;;4992766;28;20065;-75
2024/03/20 11:24:07;;;;;;;19.88;16.33;;;18.70;71.30;;;;;;4983694;28;20042;-77
2024/03/20 11:26:36;;;;;;;18.05;14.13;;;18.60;71.10;;;;;;4968071;28;20038;-75
2024/03/20 11:29:03;;;;;;;18.60;14.18;;;18.70;72.40;;;;;;4973864;28;20035;-74
2024/03/20 11:31:29;;;;;;;16.23;12.60;;;18.80;70.80;;;;;;4991854;28;20078;-75
2024/03/20 11:33:55;;;;;;;15.68;12.25;;;18.90;70.20;;;;;;4976276;28;20049;-76
2024/03/20 11:36:22;;;;;;;14.45;11.07;;;19.00;69.20;;;;;;4978880;28;20042;-77
2024/03/20 11:38:52;;;;;;;16.52;12.93;;;19.10;70.20;;;;;;4979014;28;20033;-77
2024/03/20 11:41:21;;;;;;;18.83;13.57;;;19.40;68.50;;;;;;4992082;28;20065;-76
2024/03/20 11:43:48;;;;;;;17.13;12.55;;;19.40;67.20;;;;;;4974671;28;20050;-76
2024/03/20 11:46:23;;;;;;;18.10;13.95;;;19.20;69.40;;;;;;4960622;28;20054;-76
2024/03/20 11:48:52;;;;;;;;;;;19.50;69.80;;;;;;4975868;28;20026;-76
2024/03/20 11:51:25;;;;;;;15.35;10.55;;;19.50;68.60;;;;;;4976837;28;19918;-78
2024/03/20 11:53:51;;;;;;;13.50;8.95;;;19.50;67.80;;;;;;4976910;28;20069;-76
2024/03/20 11:56:18;;;;;;;13.73;8.93;;;19.60;66.90;;;;;;4972251;28;20094;-77
2024/03/20 11:58:54;;;;;;;14.98;9.70;;;19.70;67.40;;;;;;4975413;28;20673;-76
2024/03/20 12:01:21;;;;;;;12.88;8.65;;;19.70;66.60;;;;;;4967772;28;20097;-75
2024/03/20 12:03:49;;;;;;;15.30;8.85;;;19.60;65.90;;;;;;4973146;28;20336;-75
2024/03/20 12:06:21;;;;;;;12.07;9.45;;;19.60;67.70;;;;;;4969236;28;20034;-75
2024/03/20 12:08:47;;;;;;;12.35;9.35;;;19.60;67.70;;;;;;4968025;28;20034;-75
2024/03/20 12:11:14;;;;;;;11.88;8.98;;;19.70;67.60;;;;;;4966887;28;20574;-75
2024/03/20 12:13:41;;;;;;;13.65;9.43;;;19.70;66.90;;;;;;4962967;28;20403;-75
2024/03/20 12:16:07;;;;;;;12.52;8.43;;;20.00;67.40;;;;;;4963206;28;20062;-75
2024/03/20 12:18:37;;;;;;;13.38;9.30;;;19.90;66.70;;;;;;4967320;28;20459;-75
2024/03/20 12:21:04;;;;;;;13.15;8.43;;;20.00;66.60;;;;;;4946301;28;20199;-75
2024/03/20 12:23:33;;;;;;;14.95;9.13;;;20.10;66.00;;;;;;4970093;28;20031;-75
2024/03/20 12:25:59;;;;;;;12.85;7.60;;;20.00;66.10;;;;;;4960708;28;20042;-75
2024/03/20 12:28:29;;;;;;;13.90;8.93;;;20.10;66.20;;;;;;4968400;28;20037;-75
2024/03/20 12:30:54;;;;;;;16.02;9.10;;;20.30;66.20;;;;;;4966792;28;20042;-74
2024/03/20 12:33:20;;;;;;;17.75;11.68;;;20.40;65.20;;;;;;4968014;28;20075;-75